Time;durP1;ratioP1;P1;durP2;ratioP2;P2;SDS_P1;SDS_P2;PMS_P1;PMS_P2;Temp;Humidity;BMP_temperature;BMP_pressure;BME280_temperature;BME280_humidity;BME280_pressure;Samples;Min_cycle;Max_cycle;Signal;HPM_P1;HPM_P2
2022/01/29 00:00:18;;;;;;;15.40;6.20;;;;;;;-13.82;72.61;99653.66;5039386;28;20060;-53
2022/01/29 00:02:49;;;;;;;21.90;8.35;;;;;;;-13.79;72.62;99648.84;5039487;28;20265;-56
2022/01/29 00:05:20;;;;;;;19.23;8.80;;;;;;;-13.78;72.16;99645.56;5039178;28;20324;-60
2022/01/29 00:07:52;;;;;;;22.05;8.43;;;;;;;-13.77;72.23;99648.19;5039114;28;20080;-59
2022/01/29 00:10:23;;;;;;;14.38;6.88;;;;;;;-13.85;72.39;99633.31;5039219;28;20077;-56
2022/01/29 00:12:54;;;;;;;29.65;9.07;;;;;;;-13.69;72.49;99638.66;5038893;28;20378;-57
2022/01/29 00:15:25;;;;;;;24.33;8.77;;;;;;;-13.64;72.37;99636.47;5039020;28;20057;-54
2022/01/29 00:17:55;;;;;;;21.95;6.90;;;;;;;-13.61;72.26;99630.00;5038583;28;20323;-57
2022/01/29 00:20:26;;;;;;;19.00;8.73;;;;;;;-13.54;72.09;99636.34;5038858;28;20053;-58
2022/01/29 00:22:58;;;;;;;20.67;6.07;;;;;;;-13.50;71.65;99633.28;5038924;28;20297;-60
2022/01/29 00:25:29;;;;;;;20.67;6.18;;;;;;;-13.54;71.53;99627.16;5038681;28;20116;-54
2022/01/29 00:28:00;;;;;;;19.33;6.93;;;;;;;-13.40;71.31;99635.63;5038066;28;20267;-55
2022/01/29 00:30:37;;;;;;;21.58;6.57;;;;;;;-13.44;70.52;99618.59;5037923;28;20057;-55
2022/01/29 00:33:08;;;;;;;18.52;8.02;;;;;;;-13.25;70.58;99628.22;5038066;28;20255;-55
2022/01/29 00:35:39;;;;;;;14.82;5.80;;;;;;;-13.60;70.62;99558.91;5035064;28;20073;-55
2022/01/29 00:38:12;;;;;;;20.00;6.40;;;;;;;-13.22;71.00;99625.03;5035635;28;20359;-56
2022/01/29 00:40:45;;;;;;;15.35;6.18;;;;;;;-13.16;70.48;99616.25;5038032;28;20045;-55
2022/01/29 00:43:15;;;;;;;18.13;6.90;;;;;;;-12.88;70.33;99623.09;5038664;28;20059;-57
2022/01/29 00:45:46;;;;;;;19.48;6.80;;;;;;;-12.80;69.76;99627.00;5038898;28;20256;-58
2022/01/29 00:48:17;;;;;;;13.23;5.00;;;;;;;-12.63;69.45;99616.41;5038732;28;20061;-58
2022/01/29 00:50:48;;;;;;;17.60;5.78;;;;;;;-12.53;68.66;99632.06;5038307;28;20057;-57
2022/01/29 00:53:20;;;;;;;25.48;8.07;;;;;;;-12.39;68.26;99636.34;5038366;28;20390;-58
2022/01/29 00:55:51;;;;;;;16.60;7.85;;;;;;;-12.51;67.17;99622.97;5038325;28;20217;-55
2022/01/29 00:58:21;;;;;;;13.40;6.43;;;;;;;-12.59;67.54;99617.47;5038396;28;20060;-59
2022/01/29 01:00:52;;;;;;;28.33;7.45;;;;;;;-12.81;68.44;99610.16;5038473;28;20063;-57
2022/01/29 01:03:23;;;;;;;23.40;7.32;;;;;;;-12.98;69.58;99625.78;5037946;28;20232;-59
2022/01/29 01:05:53;;;;;;;15.25;5.97;;;;;;;-12.92;69.80;99621.19;5038207;28;20053;-54
2022/01/29 01:08:25;;;;;;;16.15;7.13;;;;;;;-12.84;69.53;99615.00;5037886;28;20052;-57
2022/01/29 01:10:56;;;;;;;22.55;7.10;;;;;;;-12.86;69.40;99601.44;5038068;28;20045;-54
2022/01/29 01:13:27;;;;;;;9.55;5.03;;;;;;;-12.79;68.90;99615.31;5037799;28;20064;-56
2022/01/29 01:15:58;;;;;;;26.63;7.47;;;;;;;-12.83;69.03;99611.69;5037745;28;20103;-56
2022/01/29 01:18:29;;;;;;;22.77;8.80;;;;;;;-12.82;69.02;99599.22;5037777;28;20045;-57
2022/01/29 01:21:03;;;;;;;17.88;6.53;;;;;;;-12.78;69.05;99590.22;5037535;28;20136;-57
2022/01/29 01:23:35;;;;;;;21.02;7.00;;;;;;;-12.83;69.61;99586.53;5038058;28;20289;-57
2022/01/29 01:26:08;;;;;;;19.95;6.20;;;;;;;-12.92;69.80;99580.94;5037986;28;20046;-59
2022/01/29 01:28:39;;;;;;;17.10;5.35;;;;;;;-12.99;69.89;99568.72;5037615;28;20095;-55
2022/01/29 01:31:10;;;;;;;13.15;5.88;;;;;;;-12.90;69.53;99574.34;5037670;28;20063;-57
2022/01/29 01:33:42;;;;;;;19.67;6.72;;;;;;;-12.85;69.09;99573.88;5037617;28;20049;-55
2022/01/29 01:36:14;;;;;;;28.55;7.88;;;;;;;-12.92;69.25;99565.84;5037680;28;20057;-55
2022/01/29 01:38:50;;;;;;;19.83;5.85;;;;;;;-12.89;69.18;99571.06;5037579;28;20351;-55
2022/01/29 01:41:24;;;;;;;22.83;6.30;;;;;;;-12.99;69.05;99573.75;5037966;28;20328;-56
2022/01/29 01:44:01;;;;;;;17.42;6.40;;;;;;;-12.88;69.83;99567.75;5037554;28;20253;-56
2022/01/29 01:46:32;;;;;;;15.10;6.57;;;;;;;-12.82;69.44;99560.63;5036948;28;20053;-55
2022/01/29 01:49:03;;;;;;;13.25;6.70;;;;;;;-12.78;69.43;99570.09;5037176;28;20057;-56
2022/01/29 01:51:34;;;;;;;20.42;7.53;;;;;;;-12.65;69.11;99569.28;5037382;28;20063;-56
2022/01/29 01:54:06;;;;;;;18.05;6.43;;;;;;;-12.71;68.20;99562.19;5037597;28;20077;-59
2022/01/29 01:56:37;;;;;;;12.48;5.00;;;;;;;-12.92;68.54;99560.81;5036643;28;20115;-55
2022/01/29 01:59:08;;;;;;;17.77;5.97;;;;;;;-13.21;68.59;99506.97;5036903;28;20073;-58
2022/01/29 02:01:39;;;;;;;17.17;6.70;;;;;;;-13.28;69.16;99519.94;5032282;28;20217;-57
2022/01/29 02:04:09;;;;;;;15.77;6.32;;;;;;;-13.25;69.55;99540.25;5037157;28;20084;-57
2022/01/29 02:06:40;;;;;;;22.02;8.20;;;;;;;-12.81;68.98;99562.38;5038032;28;20359;-59
2022/01/29 02:09:14;;;;;;;18.15;7.00;;;;;;;-12.51;68.09;99560.94;5041157;28;20045;-58
2022/01/29 02:11:52;;;;;;;21.27;7.00;;;;;;;-12.65;67.20;99512.25;5040375;28;20049;-56
2022/01/29 02:14:27;;;;;;;21.83;7.55;;;;;;;-12.50;67.02;99531.59;5021679;28;20392;-54
2022/01/29 02:16:59;;;;;;;18.73;6.90;;;;;;;-13.26;67.28;99402.75;5021496;28;20076;-56
2022/01/29 02:19:30;;;;;;;15.23;5.20;;;;;;;-12.61;66.43;99534.31;5030446;28;20057;-56
2022/01/29 02:22:02;;;;;;;14.93;5.53;;;;;;;-12.55;66.50;99538.88;5040328;28;20046;-56
2022/01/29 02:24:33;;;;;;;18.27;6.57;;;;;;;-12.74;66.63;99536.81;5040968;28;20057;-57
2022/01/29 02:27:04;;;;;;;10.55;4.88;;;;;;;-12.79;67.23;99523.09;5041042;28;20057;-56
2022/01/29 02:29:35;;;;;;;16.20;6.32;;;;;;;-12.66;66.99;99514.66;5040315;28;20045;-59
2022/01/29 02:32:07;;;;;;;15.13;6.45;;;;;;;-12.88;67.07;99522.50;5040869;28;20057;-57
2022/01/29 02:34:38;;;;;;;15.43;6.15;;;;;;;-12.86;67.19;99510.88;5040877;28;20049;-55
2022/01/29 02:37:10;;;;;;;20.25;7.03;;;;;;;-12.76;67.15;99513.22;5040906;28;20059;-57
2022/01/29 02:39:41;;;;;;;15.88;6.07;;;;;;;-12.46;66.46;99510.88;5040762;28;20378;-57
2022/01/29 02:42:11;;;;;;;17.23;6.28;;;;;;;-12.25;66.46;99484.53;5040877;28;20109;-58
2022/01/29 02:44:42;;;;;;;5.78;3.28;;;;;;;-12.05;65.38;99505.00;5040884;28;20390;-57
2022/01/29 02:47:27;;;;;;;19.80;6.30;;;;;;;-12.23;64.94;99508.16;5040887;28;20046;-56
2022/01/29 02:49:58;;;;;;;11.43;5.20;;;;;;;-12.43;65.29;99503.50;5041046;28;20084;-57
2022/01/29 02:52:30;;;;;;;17.55;5.70;;;;;;;-12.41;65.18;99482.69;5040784;28;20049;-54
2022/01/29 02:55:01;;;;;;;15.35;6.13;;;;;;;-12.25;64.86;99493.72;5040410;28;20060;-55
2022/01/29 02:57:32;;;;;;;15.02;6.85;;;;;;;-12.17;64.80;99502.63;5040366;28;20099;-57
2022/01/29 03:00:03;;;;;;;12.63;5.22;;;;;;;-12.02;64.91;99497.63;5040434;28;20052;-55
2022/01/29 03:02:33;;;;;;;16.92;6.03;;;;;;;-12.07;64.07;99479.72;5040523;28;20116;-56
2022/01/29 03:05:04;;;;;;;14.60;5.97;;;;;;;-11.76;63.76;99492.44;5040388;28;20099;-54
2022/01/29 03:07:38;;;;;;;17.73;7.93;;;;;;;-11.94;63.91;99463.69;5040676;28;20053;-56
2022/01/29 03:10:10;;;;;;;17.65;5.18;;;;;;;-11.80;64.03;99485.50;5040487;28;20095;-58
2022/01/29 03:12:41;;;;;;;19.90;5.80;;;;;;;-11.76;64.95;99472.28;5040299;28;20057;-57
2022/01/29 03:15:12;;;;;;;15.00;5.97;;;;;;;-11.78;65.39;99493.16;5040315;28;20049;-58
2022/01/29 03:17:43;;;;;;;18.58;6.85;;;;;;;-11.82;64.65;99481.16;5039382;28;20054;-55
2022/01/29 03:20:14;;;;;;;13.30;6.72;;;;;;;-12.11;64.82;99466.84;5039655;28;20244;-54
2022/01/29 03:22:47;;;;;;;15.52;5.38;;;;;;;-12.95;65.12;99344.31;5040205;28;20355;-55
2022/01/29 03:25:17;;;;;;;10.35;4.80;;;;;;;-12.33;65.75;99480.66;5035227;28;20120;-58
2022/01/29 03:27:48;;;;;;;13.20;5.57;;;;;;;-12.46;66.15;99463.06;5034844;28;20136;-57
2022/01/29 03:30:19;;;;;;;9.32;4.10;;;;;;;-12.41;65.64;99472.63;5036240;28;20077;-57
2022/01/29 03:32:50;;;;;;;14.15;6.50;;;;;;;-12.80;65.74;99415.72;5033298;28;20046;-53
2022/01/29 03:35:21;;;;;;;17.15;6.13;;;;;;;-12.33;65.13;99460.50;5035145;28;20045;-53
2022/01/29 03:37:53;;;;;;;10.95;5.05;;;;;;;-12.26;64.87;99461.75;5036022;28;20079;-54
2022/01/29 03:40:24;;;;;;;12.05;5.45;;;;;;;-12.26;65.36;99452.56;5035706;28;20091;-54
2022/01/29 03:43:02;;;;;;;8.55;4.97;;;;;;;-12.29;65.57;99467.47;5035224;28;20401;-52
2022/01/29 03:45:33;;;;;;;15.02;5.10;;;;;;;-12.56;65.46;99421.34;5035236;28;20339;-53
2022/01/29 03:48:04;;;;;;;12.52;5.07;;;;;;;-12.30;66.04;99448.13;5034976;28;20056;-52
2022/01/29 03:50:35;;;;;;;15.43;5.57;;;;;;;-12.07;66.11;99456.19;5035366;28;20064;-56
2022/01/29 03:53:07;;;;;;;9.65;4.07;;;;;;;-12.23;65.44;99460.31;5035034;28;20045;-55
2022/01/29 03:55:38;;;;;;;9.85;6.25;;;;;;;-12.40;65.76;99448.34;5035677;28;20053;-53
2022/01/29 03:58:09;;;;;;;11.02;5.78;;;;;;;-12.55;66.04;99447.38;5035277;28;20065;-52
2022/01/29 04:00:40;;;;;;;11.02;5.20;;;;;;;-12.87;66.61;99449.66;5036089;28;20049;-52
2022/01/29 04:03:11;;;;;;;10.20;5.18;;;;;;;-13.40;66.72;99383.44;5035763;28;20068;-52
2022/01/29 04:05:42;;;;;;;14.30;5.30;;;;;;;-13.10;66.88;99453.25;5034710;28;20071;-52
2022/01/29 04:08:16;;;;;;;17.35;4.88;;;;;;;-13.21;67.30;99450.81;5034894;28;20049;-55
2022/01/29 04:10:48;;;;;;;14.57;5.07;;;;;;;-13.04;67.35;99456.13;5035471;28;20145;-53
2022/01/29 04:13:22;;;;;;;20.20;6.47;;;;;;;-12.83;67.15;99445.69;5035778;28;20076;-53
2022/01/29 04:15:53;;;;;;;15.65;5.85;;;;;;;-12.89;66.35;99440.28;5035238;28;20048;-53
2022/01/29 04:18:24;;;;;;;14.20;5.75;;;;;;;-12.83;66.13;99435.63;5029836;28;20757;-54
2022/01/29 04:20:54;;;;;;;11.82;5.43;;;;;;;-12.74;66.23;99456.31;5033628;28;20129;-57
2022/01/29 04:23:27;;;;;;;12.55;4.80;;;;;;;-12.79;65.91;99445.09;5034540;28;20279;-56
2022/01/29 04:25:57;;;;;;;6.38;4.03;;;;;;;-12.56;65.82;99455.72;5035660;28;20075;-52
2022/01/29 04:28:32;;;;;;;15.65;6.35;;;;;;;-12.34;65.72;99457.91;5034891;28;20112;-54
2022/01/29 04:31:07;;;;;;;16.33;5.95;;;;;;;-12.29;66.03;99447.34;5033970;28;20045;-57
2022/01/29 04:33:38;;;;;;;11.32;4.90;;;;;;;-12.49;65.55;99402.47;5034750;28;20091;-53
2022/01/29 04:36:09;;;;;;;16.52;6.10;;;;;;;-12.16;65.25;99454.84;5035108;28;20053;-57
2022/01/29 04:38:42;;;;;;;9.50;4.63;;;;;;;-12.34;65.42;99433.59;5034518;28;20340;-56
2022/01/29 04:41:12;;;;;;;9.85;4.50;;;;;;;-12.47;65.74;99441.19;5034886;28;20057;-55
2022/01/29 04:43:44;;;;;;;21.35;7.75;;;;;;;-12.24;65.53;99461.06;5034352;28;20081;-54
2022/01/29 04:46:14;;;;;;;15.63;7.40;;;;;;;-12.03;64.93;99453.06;5033251;28;20045;-52
2022/01/29 04:48:45;;;;;;;26.90;7.47;;;;;;;-12.09;65.54;99450.19;5033481;28;20259;-54
2022/01/29 04:51:16;;;;;;;26.73;8.07;;;;;;;-12.36;65.59;99455.28;5034297;28;20081;-58
2022/01/29 04:53:49;;;;;;;24.02;7.85;;;;;;;-12.67;66.76;99443.34;5034804;28;20415;-56
2022/01/29 04:56:19;;;;;;;14.23;5.55;;;;;;;-12.95;68.11;99437.34;5034392;28;20069;-56
2022/01/29 04:58:50;;;;;;;11.45;4.50;;;;;;;-13.14;68.62;99453.81;5034175;28;20049;-57
2022/01/29 05:01:21;;;;;;;10.18;5.15;;;;;;;-13.32;69.03;99452.66;5034023;28;20053;-54
2022/01/29 05:03:52;;;;;;;8.27;5.38;;;;;;;-13.53;69.73;99437.91;5033601;28;20268;-54
2022/01/29 05:06:23;;;;;;;14.65;6.15;;;;;;;-13.63;70.06;99465.72;5033897;28;20613;-56
2022/01/29 05:08:55;;;;;;;14.68;5.00;;;;;;;-13.78;70.44;99450.50;5034539;28;20060;-57
2022/01/29 05:11:26;;;;;;;15.95;5.20;;;;;;;-13.69;70.49;99470.34;5034254;28;20334;-54
2022/01/29 05:13:57;;;;;;;17.90;6.60;;;;;;;-13.53;70.25;99463.03;5033668;28;20120;-54
2022/01/29 05:16:42;;;;;;;9.13;4.88;;;;;;;-13.32;70.35;99465.25;5034227;28;20280;-56
2022/01/29 05:27:46;;;;;;;23.25;9.63;;;;;;;-13.47;69.79;99453.41;5033197;28;20076;-57
2022/01/29 05:30:17;;;;;;;19.55;7.57;;;;;;;-13.47;70.22;99458.44;5033195;28;20112;-58
2022/01/29 05:32:47;;;;;;;26.42;8.75;;;;;;;-13.50;70.44;99453.22;5032610;28;20053;-52
2022/01/29 05:35:18;;;;;;;33.30;9.75;;;;;;;-13.58;70.96;99454.34;5032857;28;20061;-54
2022/01/29 05:37:50;;;;;;;21.52;8.70;;;;;;;-13.57;70.79;99440.16;5032529;28;20104;-55
2022/01/29 05:40:23;;;;;;;17.75;8.45;;;;;;;-13.52;70.61;99449.72;5033167;28;20124;-58
2022/01/29 05:42:54;;;;;;;18.05;6.93;;;;;;;-13.54;70.08;99451.28;5032974;28;20168;-55
2022/01/29 05:45:25;;;;;;;14.52;5.93;;;;;;;-13.69;70.23;99455.28;5033208;28;20057;-55
2022/01/29 05:47:56;;;;;;;13.40;7.15;;;;;;;-13.72;70.52;99450.94;5031938;28;20120;-54
2022/01/29 05:50:27;;;;;;;23.42;7.45;;;;;;;-13.72;70.58;99445.03;5032479;28;20055;-57
2022/01/29 05:52:57;;;;;;;18.75;6.47;;;;;;;-13.85;70.92;99437.44;5033160;28;20296;-54
2022/01/29 05:55:30;;;;;;;15.60;6.22;;;;;;;-13.98;71.06;99459.22;5033973;28;20124;-53
2022/01/29 05:58:00;;;;;;;13.90;5.95;;;;;;;-14.15;71.55;99457.22;5033440;28;20125;-53
2022/01/29 06:00:31;;;;;;;15.45;5.15;;;;;;;-14.18;71.90;99472.06;5033125;28;20060;-53
2022/01/29 06:03:03;;;;;;;21.77;6.35;;;;;;;-14.26;72.19;99473.19;5033979;28;20354;-53
2022/01/29 06:05:34;;;;;;;16.90;5.97;;;;;;;-14.31;72.31;99472.88;5033835;28;20091;-53
2022/01/29 06:08:05;;;;;;;22.67;5.70;;;;;;;-14.35;72.24;99465.91;5033900;28;20238;-56
2022/01/29 06:10:38;;;;;;;12.13;4.53;;;;;;;-14.26;72.29;99468.19;5033778;28;20092;-57
2022/01/29 06:13:10;;;;;;;12.18;6.07;;;;;;;-14.21;72.16;99477.75;5033614;28;20045;-53
2022/01/29 06:15:43;;;;;;;23.92;6.18;;;;;;;-14.24;72.24;99456.63;5033348;28;20057;-56
2022/01/29 06:18:18;;;;;;;12.32;5.72;;;;;;;-14.97;72.29;99340.50;5033339;28;20053;-54
2022/01/29 06:20:49;;;;;;;16.55;7.18;;;;;;;-14.29;72.15;99462.97;5033267;28;20065;-54
2022/01/29 06:23:28;;;;;;;28.23;8.85;;;;;;;-14.22;72.26;99482.69;5032949;28;20064;-56
2022/01/29 06:26:02;;;;;;;24.20;8.05;;;;;;;-14.30;72.62;99482.19;5033172;28;20239;-57
2022/01/29 06:28:34;;;;;;;22.35;7.32;;;;;;;-14.39;72.54;99482.41;5032080;28;20666;-57
2022/01/29 06:31:06;;;;;;;27.85;8.52;;;;;;;-14.31;72.67;99494.59;5030681;28;20047;-59
2022/01/29 06:33:37;;;;;;;20.65;6.10;;;;;;;-14.41;72.54;99483.91;5032613;28;20057;-56
2022/01/29 06:36:08;;;;;;;23.70;7.95;;;;;;;-14.57;72.88;99466.13;5033000;28;20338;-54
2022/01/29 06:38:39;;;;;;;15.55;6.97;;;;;;;-14.45;72.88;99492.03;5033108;28;20239;-57
2022/01/29 06:41:11;;;;;;;18.65;6.47;;;;;;;-14.54;73.25;99486.38;5032850;28;20045;-55
2022/01/29 06:43:42;;;;;;;22.30;6.50;;;;;;;-14.60;73.46;99493.47;5031819;28;20427;-58
2022/01/29 06:46:13;;;;;;;25.73;8.07;;;;;;;-14.71;73.71;99496.88;5031212;28;20061;-65
2022/01/29 06:48:44;;;;;;;24.20;7.22;;;;;;;-14.78;73.77;99496.44;5031238;28;20117;-66
2022/01/29 06:51:14;;;;;;;18.30;6.22;;;;;;;-14.88;73.64;99483.13;5031629;28;20056;-65
2022/01/29 06:53:45;;;;;;;18.90;6.82;;;;;;;-14.84;74.21;99508.53;5034193;28;20060;-65
2022/01/29 06:56:17;;;;;;;19.88;6.88;;;;;;;-14.95;73.94;99486.84;5034971;28;20359;-66
2022/01/29 06:58:48;;;;;;;14.30;6.15;;;;;;;-14.83;74.19;99517.78;5035637;28;20068;-64
2022/01/29 07:01:38;;;;;;;12.52;5.65;;;;;;;-14.91;74.39;99503.84;5035506;28;20083;-65
2022/01/29 07:04:09;;;;;;;17.63;6.07;;;;;;;-14.88;74.24;99519.09;5035425;28;20068;-64
2022/01/29 07:06:41;;;;;;;9.98;5.05;;;;;;;-14.92;74.57;99514.66;5035670;28;20129;-65
2022/01/29 07:09:11;;;;;;;10.90;5.30;;;;;;;-15.05;74.49;99514.50;5034012;28;20053;-66
2022/01/29 07:11:45;;;;;;;13.82;5.13;;;;;;;-15.04;74.55;99517.16;5035495;28;20045;-66
2022/01/29 07:14:17;;;;;;;5.95;3.38;;;;;;;-15.17;75.28;99508.63;5035434;28;20073;-65
2022/01/29 07:16:48;;;;;;;16.63;6.07;;;;;;;-15.05;75.06;99520.44;5035240;28;20057;-65
2022/01/29 07:19:19;;;;;;;17.83;5.05;;;;;;;-15.08;75.39;99524.31;5033552;28;20103;-65
2022/01/29 07:21:49;;;;;;;17.90;5.93;;;;;;;-15.10;75.35;99525.84;5033427;28;20045;-66
2022/01/29 07:24:20;;;;;;;12.75;5.10;;;;;;;-15.09;75.38;99532.63;5034389;28;20045;-65
2022/01/29 07:26:52;;;;;;;12.45;4.90;;;;;;;-15.11;75.55;99524.09;5035220;28;20069;-65
2022/01/29 07:29:23;;;;;;;12.10;5.22;;;;;;;-15.11;75.91;99534.13;5035592;28;20088;-64
2022/01/29 07:31:55;;;;;;;18.13;5.00;;;;;;;-15.22;75.95;99520.84;5036143;28;20619;-64
2022/01/29 07:34:27;;;;;;;16.63;5.18;;;;;;;-15.10;75.97;99541.78;5036192;28;20060;-64
2022/01/29 07:36:59;;;;;;;12.82;5.57;;;;;;;-15.30;75.88;99507.75;5036196;28;20057;-65
2022/01/29 07:39:30;;;;;;;13.18;5.70;;;;;;;-15.15;76.24;99527.16;5035979;28;20051;-64
2022/01/29 07:42:02;;;;;;;14.82;4.93;;;;;;;-15.11;76.13;99524.97;5036245;28;20107;-64
2022/01/29 07:44:33;;;;;;;12.48;5.65;;;;;;;-15.05;76.13;99545.50;5036283;28;20085;-63
2022/01/29 07:47:04;;;;;;;18.30;6.28;;;;;;;-15.06;76.22;99547.88;5035857;28;20061;-63
2022/01/29 07:49:35;;;;;;;12.93;5.32;;;;;;;-15.12;76.31;99547.41;5035958;28;20061;-64
2022/01/29 07:52:06;;;;;;;12.82;5.72;;;;;;;-15.11;76.38;99549.16;5034889;28;20076;-64
2022/01/29 07:54:37;;;;;;;15.35;6.05;;;;;;;-15.09;76.32;99560.19;5035332;28;20045;-64
2022/01/29 07:57:10;;;;;;;8.93;4.90;;;;;;;-15.08;76.44;99554.41;5034860;28;20085;-65
2022/01/29 07:59:40;;;;;;;21.13;5.90;;;;;;;-15.21;76.33;99533.47;5035728;28;20087;-65
2022/01/29 08:02:11;;;;;;;9.55;4.45;;;;;;;-15.03;76.23;99563.13;5035766;28;20041;-64
2022/01/29 08:04:42;;;;;;;22.88;9.60;;;;;;;-15.06;76.21;99557.91;5034905;28;20232;-63
2022/01/29 08:07:13;;;;;;;22.48;7.30;;;;;;;-14.97;76.09;99568.59;5035408;28;20687;-64
2022/01/29 08:09:43;;;;;;;15.95;6.47;;;;;;;-14.98;75.97;99570.97;5035577;28;20053;-66
2022/01/29 08:12:16;;;;;;;17.38;6.35;;;;;;;-15.05;76.12;99577.16;5035781;28;20057;-65
2022/01/29 08:14:46;;;;;;;16.73;7.03;;;;;;;-15.10;76.16;99573.47;5035373;28;20116;-65
2022/01/29 08:17:17;;;;;;;17.27;7.50;;;;;;;-15.05;76.24;99577.16;5034989;28;20060;-64
2022/01/29 08:19:49;;;;;;;19.35;6.20;;;;;;;-15.13;76.21;99573.25;5035342;28;20068;-64
2022/01/29 08:22:20;;;;;;;17.63;6.68;;;;;;;-15.14;76.63;99574.00;5035235;28;21113;-64
2022/01/29 08:24:52;;;;;;;17.40;7.07;;;;;;;-15.16;76.48;99585.56;5032158;28;20060;-64
2022/01/29 08:27:24;;;;;;;15.07;6.93;;;;;;;-15.10;76.56;99575.97;5034710;28;20125;-64
2022/01/29 08:29:55;;;;;;;22.52;7.00;;;;;;;-15.07;76.44;99572.06;5032613;28;20057;-64
2022/01/29 08:32:26;;;;;;;19.70;7.10;;;;;;;-15.02;76.21;99582.44;5035301;28;20088;-63
2022/01/29 08:34:56;;;;;;;18.50;8.27;;;;;;;-15.20;76.23;99554.38;5034694;28;20077;-63
2022/01/29 08:37:27;;;;;;;20.85;8.48;;;;;;;-15.21;76.38;99548.50;5035101;28;20060;-64
2022/01/29 08:39:58;;;;;;;20.70;7.97;;;;;;;-15.07;76.65;99564.56;5034889;28;20061;-65
2022/01/29 08:42:30;;;;;;;26.40;8.73;;;;;;;-15.04;76.27;99581.44;5034551;28;20057;-65
2022/01/29 08:45:01;;;;;;;31.65;7.88;;;;;;;-15.00;76.32;99578.38;5035263;28;20084;-65
2022/01/29 08:47:32;;;;;;;25.08;8.20;;;;;;;-14.99;76.10;99572.63;5034453;28;20133;-62
2022/01/29 08:50:04;;;;;;;13.25;5.47;;;;;;;-15.28;75.97;99540.41;5034638;28;20061;-64
2022/01/29 08:52:35;;;;;;;20.60;7.20;;;;;;;-15.19;76.22;99575.31;5034670;28;20359;-65
2022/01/29 08:55:07;;;;;;;16.52;6.63;;;;;;;-15.31;76.46;99583.66;5034283;28;20062;-65
2022/01/29 08:57:40;;;;;;;15.73;7.40;;;;;;;-15.51;76.77;99566.28;5034205;28;20060;-65
2022/01/29 09:00:12;;;;;;;16.90;7.15;;;;;;;-15.52;76.89;99574.53;5034756;28;20095;-65
2022/01/29 09:02:43;;;;;;;26.88;8.32;;;;;;;-15.47;76.94;99593.31;5034395;28;20061;-66
2022/01/29 09:05:15;;;;;;;16.92;7.18;;;;;;;-15.49;76.76;99584.81;5034077;28;20073;-66
2022/01/29 09:07:47;;;;;;;19.73;7.82;;;;;;;-15.45;77.07;99591.75;5033051;28;20061;-66
2022/01/29 09:10:18;;;;;;;21.55;9.07;;;;;;;-15.44;76.81;99591.03;5033001;28;20049;-66
2022/01/29 09:12:50;;;;;;;27.90;7.45;;;;;;;-15.72;76.60;99556.44;5034262;28;20053;-66
2022/01/29 09:15:21;;;;;;;20.73;7.30;;;;;;;-15.57;77.18;99580.81;5033467;28;20045;-65
2022/01/29 09:17:52;;;;;;;22.60;8.00;;;;;;;-15.59;76.79;99577.34;5033133;28;20104;-65
2022/01/29 09:20:22;;;;;;;23.50;8.00;;;;;;;-15.56;77.04;99573.44;5033575;28;20095;-66
2022/01/29 09:22:53;;;;;;;24.02;8.55;;;;;;;-15.43;76.98;99595.25;5034060;28;20343;-66
2022/01/29 09:25:25;;;;;;;20.90;8.63;;;;;;;-15.49;76.76;99584.81;5033083;28;20060;-65
2022/01/29 09:27:57;;;;;;;22.70;8.75;;;;;;;-15.49;76.98;99594.81;5034157;28;20051;-65
2022/01/29 09:30:28;;;;;;;22.77;8.02;;;;;;;-15.56;77.00;99572.56;5032754;28;20041;-66
2022/01/29 09:32:59;;;;;;;23.50;8.73;;;;;;;-15.34;77.15;99595.09;5033479;28;20055;-65
2022/01/29 09:35:30;;;;;;;19.13;8.00;;;;;;;-15.37;77.11;99590.72;5031895;28;20064;-66
2022/01/29 09:38:01;;;;;;;23.08;8.95;;;;;;;-15.37;76.89;99600.75;5033980;28;20041;-66
2022/01/29 09:40:32;;;;;;;20.10;8.95;;;;;;;-15.51;76.89;99586.31;5033417;28;20335;-66
2022/01/29 09:43:06;;;;;;;27.20;8.93;;;;;;;-15.49;76.93;99589.81;5032224;28;20113;-64
2022/01/29 09:45:37;;;;;;;17.70;6.50;;;;;;;-15.49;77.08;99589.81;5034079;28;20045;-65
2022/01/29 09:48:08;;;;;;;15.23;7.85;;;;;;;-15.50;77.05;99588.03;5033401;28;20058;-65
2022/01/29 09:50:40;;;;;;;20.70;7.63;;;;;;;-15.36;77.09;99606.63;5033187;28;20053;-64
2022/01/29 09:53:11;;;;;;;20.58;7.47;;;;;;;-15.29;77.21;99607.19;5033224;28;20052;-65
2022/01/29 09:55:43;;;;;;;21.63;7.85;;;;;;;-15.18;77.22;99602.09;5032657;28;20140;-65
2022/01/29 09:58:15;;;;;;;19.17;6.88;;;;;;;-15.08;77.02;99609.53;5033133;28;20378;-65
2022/01/29 10:00:46;;;;;;;19.75;6.50;;;;;;;-15.08;76.71;99609.53;5033216;28;20057;-65
2022/01/29 10:03:21;;;;;;;23.65;6.70;;;;;;;-15.26;76.67;99609.91;5033863;28;20061;-65
2022/01/29 10:05:53;;;;;;;11.68;5.88;;;;;;;-15.39;76.63;99587.22;5033446;28;20061;-65
2022/01/29 10:08:24;;;;;;;18.83;6.50;;;;;;;-15.37;76.58;99605.75;5033818;28;20379;-65
2022/01/29 10:10:56;;;;;;;18.42;6.35;;;;;;;-15.35;76.76;99616.75;5033005;28;20061;-65
2022/01/29 10:13:31;;;;;;;11.13;4.65;;;;;;;-15.39;76.89;99604.75;5033535;28;20052;-65
2022/01/29 10:16:13;;;;;;;13.88;5.88;;;;;;;-15.39;77.10;99627.31;5031633;28;20079;-64
2022/01/29 10:18:47;;;;;;;22.08;6.78;;;;;;;-15.30;77.08;99618.00;5032579;28;20053;-65
2022/01/29 10:21:22;;;;;;;18.67;6.75;;;;;;;-15.32;77.11;99601.97;5031960;28;20105;-64
2022/01/29 10:24:04;;;;;;;19.58;6.38;;;;;;;-15.37;76.97;99595.75;5033398;28;20081;-65
2022/01/29 10:26:36;;;;;;;13.85;5.88;;;;;;;-15.38;76.83;99583.94;5033041;28;20156;-67
2022/01/29 10:29:11;;;;;;;14.93;6.18;;;;;;;-15.08;76.77;99629.59;5036850;28;20069;-65
2022/01/29 10:31:44;;;;;;;12.52;6.10;;;;;;;-15.08;76.60;99625.44;5037059;28;20057;-65
2022/01/29 10:34:20;;;;;;;12.20;6.45;;;;;;;-15.08;76.67;99627.09;5036765;28;20055;-64
2022/01/29 10:37:15;;;;;;;13.98;5.78;;;;;;;-15.16;76.46;99615.63;5037222;28;20293;-65
2022/01/29 10:39:49;;;;;;;15.40;5.90;;;;;;;-15.56;76.53;99562.56;5036927;28;20041;-66
2022/01/29 10:42:22;;;;;;;19.60;6.57;;;;;;;-15.31;76.49;99616.22;5036370;28;20049;-65
2022/01/29 10:44:59;;;;;;;19.10;6.30;;;;;;;-15.52;76.54;99582.03;5035419;28;20352;-65
2022/01/29 10:47:30;;;;;;;12.13;5.82;;;;;;;-15.28;76.90;99616.44;5035346;28;20267;-65
2022/01/29 10:50:05;;;;;;;20.08;6.25;;;;;;;-15.33;76.74;99617.72;5037124;28;20049;-65
2022/01/29 10:52:37;;;;;;;13.50;6.18;;;;;;;-15.30;77.11;99618.00;5036519;28;20116;-67
2022/01/29 10:55:10;;;;;;;14.40;6.22;;;;;;;-15.28;76.97;99621.47;5036717;28;20053;-63
2022/01/29 10:57:41;;;;;;;10.35;5.45;;;;;;;-16.03;76.84;99477.28;5036211;28;20099;-64
2022/01/29 11:00:20;;;;;;;15.45;6.10;;;;;;;-15.41;76.83;99608.78;5036646;28;20063;-64
2022/01/29 11:02:53;;;;;;;14.38;6.43;;;;;;;-15.41;76.92;99613.78;5036746;28;20054;-64
2022/01/29 11:05:28;;;;;;;21.48;7.05;;;;;;;-15.42;76.76;99597.03;5035994;28;20125;-63
2022/01/29 11:08:03;;;;;;;24.98;7.20;;;;;;;-15.32;76.76;99618.59;5036588;28;20125;-64
2022/01/29 11:10:34;;;;;;;14.60;6.82;;;;;;;-15.30;76.67;99612.97;5036497;28;20125;-63
2022/01/29 11:13:09;;;;;;;12.93;6.85;;;;;;;-15.32;76.68;99599.47;5036230;28;20125;-63
2022/01/29 11:15:42;;;;;;;21.50;7.78;;;;;;;-15.31;76.78;99601.19;5035498;28;20053;-64
2022/01/29 11:18:13;;;;;;;25.88;9.23;;;;;;;-15.21;76.81;99608.63;5036613;28;20057;-64
2022/01/29 11:20:44;;;;;;;26.90;10.75;;;;;;;-15.27;76.49;99603.19;5035879;28;20057;-65
2022/01/29 11:23:15;;;;;;;21.85;8.35;;;;;;;-15.29;76.53;99609.69;5036599;28;20109;-64
2022/01/29 11:25:46;;;;;;;15.82;8.40;;;;;;;-15.44;76.55;99583.50;5035954;28;20080;-63
2022/01/29 11:28:19;;;;;;;17.73;7.88;;;;;;;-15.14;76.88;99619.13;5035912;28;20091;-63
2022/01/29 11:31:24;;;;;;;21.70;7.82;;;;;;;-15.30;76.63;99595.44;5036330;28;20057;-63
2022/01/29 11:34:24;;;;;;;17.52;6.45;;;;;;;-15.33;76.51;99602.69;5036229;28;20068;-65
2022/01/29 11:37:08;;;;;;;14.05;6.65;;;;;;;-15.38;76.65;99619.03;4964692;28;20057;-65
2022/01/29 11:39:39;;;;;;;11.05;5.80;;;;;;;-15.44;76.63;99616.06;5028149;28;20324;-64
2022/01/29 11:42:32;;;;;;;16.15;6.95;;;;;;;-15.52;76.75;99614.59;5035911;28;20077;-64
2022/01/29 11:45:39;;;;;;;17.52;6.90;;;;;;;-15.75;76.76;99600.38;5036186;28;20041;-63
2022/01/29 11:48:55;;;;;;;14.02;7.57;;;;;;;-15.66;77.20;99606.94;4991465;28;20244;-64